Hauptseite
METAR-TAF:

METAR-TAF

Flughäfen :

Lanvéoc, Frankreich

Militärflugplatz Lanvéoc-Poulmic

Breite: 48-17N, Länge: 004-26W, Höhe: 87 m

Beobachtung

Neuester Wetterbericht von vor 34 Minuten, um 22:30 UTC
Wind 3 kt aus Süd
Temperatur 13°C
Luftfeuchtigkeit 88%
Luftdruck 1014 hPa
Sichtweite 10 km oder mehr
keine Wolken unter 1500 m und keine Kumulonimbus oder Gewitterwolken

METAR: LFRL 212230Z AUTO 17003KT CAVOK 13/11 Q1014

Zeit: 01:04 (23:04 UTC)

Prognose

Neuester Wetterbericht von vor 33 Stunden und 4 Minuten, um 14:00 UTC
Gültige Prognose vom 20 um 15 UTC bis 20 um 24 UTC
Wind 9 kt aus Nord
Sichtweite 10 km oder mehr
keine Wolken unter 1500 m und keine Kumulonimbus oder Gewitterwolken

TAF: LFRL 201400Z 2015/2024 36009KT CAVOK

Wetterbeobachtungen und Prognosen von mehr als 4000 Flughäfen (METAR und TAF Bericht).

Die verfügbaren Stationen werden durch gelbe und rote Markierungen auf der Karte dargestellt.

Führen Sie die Maus auf sie, um den Namen der Station zu sehen.

Darauf klicken, um die Beobachtung von Wetterbeobachtungen und Prognosen zu sehen.

Um die Karte zu ändern : klicken Sie auf den grünen Tasten mit einem schwarzen Kreuz Zum Vergrößern, auf den grünen Button mit einem Gedankenstrich zu verkleinern, oder auf die grünen Pfeile für benachbarte Karten.


METAR-TAF: